createdAt,value
2022-10-19T00:03:43.319Z,8.53
2022-10-19T00:08:47.159Z,8.45
2022-10-19T00:13:50.784Z,8.42
2022-10-19T00:18:57.752Z,8.37
2022-10-19T00:24:01.449Z,8.36
2022-10-19T00:29:06.536Z,8.31
2022-10-19T00:34:10.104Z,8.25
2022-10-19T00:39:16.501Z,8.22
2022-10-19T00:44:19.849Z,8.17
2022-10-19T00:49:30.156Z,8.13
2022-10-19T00:54:34.502Z,8.04
2022-10-19T00:59:39.481Z,7.95
2022-10-19T01:04:49.130Z,7.91
2022-10-19T01:09:53.183Z,7.90
2022-10-19T01:15:28.505Z,7.76
2022-10-19T01:20:53.412Z,7.67
2022-10-19T01:26:15.398Z,7.53
2022-10-19T01:31:26.164Z,7.43
2022-10-19T01:37:03.226Z,7.36
2022-10-19T01:42:25.628Z,7.27
2022-10-19T01:47:45.744Z,7.36
2022-10-19T01:52:52.844Z,7.30
2022-10-19T01:58:02.665Z,7.21
2022-10-19T02:03:07.846Z,7.16
2022-10-19T02:08:48.101Z,7.18
2022-10-19T02:14:00.128Z,7.07
2022-10-19T02:19:05.893Z,7.04
2022-10-19T02:24:09.276Z,7.05
2022-10-19T02:29:15.586Z,7.03
2022-10-19T02:34:18.858Z,7.11
2022-10-19T02:39:22.330Z,7.47
2022-10-19T02:44:43.248Z,7.42
2022-10-19T02:49:48.353Z,7.20
2022-10-19T02:54:51.908Z,7.18
2022-10-19T02:59:54.829Z,7.10
2022-10-19T03:04:58.372Z,7.09
2022-10-19T03:10:01.805Z,7.07
2022-10-19T03:15:06.109Z,6.94
2022-10-19T03:20:10.699Z,6.89
2022-10-19T03:25:14.700Z,6.92
2022-10-19T03:30:17.973Z,6.88
2022-10-19T03:35:20.914Z,6.88
2022-10-19T03:40:24.079Z,6.92
2022-10-19T03:45:27.124Z,6.84
2022-10-19T03:50:30.491Z,6.83
2022-10-19T03:55:34.128Z,6.90
2022-10-19T04:00:37.611Z,6.90
2022-10-19T04:05:41.139Z,6.84
2022-10-19T04:10:45.233Z,6.83
2022-10-19T04:15:48.958Z,6.73
2022-10-19T04:21:06.365Z,6.73
2022-10-19T04:26:10.286Z,6.69
2022-10-19T04:31:13.843Z,6.75
2022-10-19T04:36:17.742Z,7.31
2022-10-19T04:41:22.678Z,7.14
2022-10-19T04:46:27.299Z,7.06
2022-10-19T04:51:30.829Z,6.93
2022-10-19T04:56:34.740Z,6.82
2022-10-19T05:01:40.402Z,6.79
2022-10-19T05:06:45.251Z,7.02
2022-10-19T05:11:52.327Z,7.18
2022-10-19T05:16:55.774Z,7.72
2022-10-19T05:21:59.269Z,8.52
2022-10-19T05:27:02.250Z,8.55
2022-10-19T05:32:06.586Z,8.74
2022-10-19T05:37:09.606Z,9.25
2022-10-19T05:42:13.904Z,9.24
2022-10-19T05:47:16.835Z,9.34
2022-10-19T05:52:23.579Z,9.66
2022-10-19T05:57:26.620Z,9.82
2022-10-19T06:02:30.658Z,10.02
2022-10-19T06:07:35.231Z,10.39
2022-10-19T06:12:39.135Z,12.80
2022-10-19T06:17:42.769Z,17.97
2022-10-19T06:22:45.823Z,20.59
2022-10-19T06:27:49.647Z,22.70
2022-10-19T06:32:53.093Z,22.96
2022-10-19T06:37:58.656Z,24.42
2022-10-19T06:43:01.756Z,25.00
2022-10-19T06:48:07.797Z,25.67
2022-10-19T06:53:12.839Z,26.90
2022-10-19T06:58:16.503Z,26.93
2022-10-19T07:03:19.618Z,26.36
2022-10-19T07:08:24.200Z,26.13
2022-10-19T07:13:29.340Z,25.37
2022-10-19T07:18:32.863Z,25.40
2022-10-19T07:23:38.266Z,25.54
2022-10-19T07:28:43.588Z,25.49
2022-10-19T07:33:52.376Z,25.29
2022-10-19T07:38:56.087Z,26.48
2022-10-19T07:43:59.938Z,27.25
2022-10-19T07:49:06.643Z,26.58
2022-10-19T07:54:09.926Z,26.88
2022-10-19T07:59:16.729Z,27.28
2022-10-19T08:09:53.715Z,29.05
2022-10-19T08:14:57.901Z,28.45
2022-10-19T08:20:01.705Z,28.08
2022-10-19T08:25:06.172Z,29.07
2022-10-19T08:30:10.208Z,27.04
2022-10-19T08:35:14.387Z,27.77
2022-10-19T08:40:23.389Z,27.59
2022-10-19T08:45:33.961Z,28.46
2022-10-19T08:50:40.299Z,27.23
2022-10-19T08:56:08.738Z,27.51
2022-10-19T09:01:24.822Z,27.49
2022-10-19T09:07:05.892Z,27.21
2022-10-19T09:12:15.517Z,27.12
2022-10-19T09:17:19.151Z,26.51
2022-10-19T09:22:35.637Z,26.60
2022-10-19T09:27:42.896Z,25.84
2022-10-19T09:32:47.451Z,24.85
2022-10-19T09:37:52.220Z,26.32
2022-10-19T09:43:03.065Z,26.38
2022-10-19T09:48:18.578Z,26.17
2022-10-19T09:53:23.065Z,25.24
2022-10-19T09:58:32.891Z,24.99
2022-10-19T10:03:40.600Z,23.16
2022-10-19T10:08:58.238Z,23.62
2022-10-19T10:14:20.802Z,24.08
2022-10-19T10:19:29.342Z,23.32
2022-10-19T10:24:34.637Z,22.71
2022-10-19T10:29:41.518Z,24.83
2022-10-19T10:35:00.809Z,24.69
2022-10-19T10:40:06.107Z,24.15
2022-10-19T10:45:25.665Z,23.40
2022-10-19T10:50:36.909Z,23.64
2022-10-19T10:55:40.960Z,24.48
2022-10-19T11:00:46.216Z,24.04
2022-10-19T11:06:09.441Z,23.56
2022-10-19T11:11:18.566Z,23.59
2022-10-19T11:16:32.859Z,24.33
2022-10-19T11:22:04.657Z,24.39
2022-10-19T11:27:18.942Z,24.96
2022-10-19T11:32:34.948Z,25.16
2022-10-19T11:38:20.088Z,24.92
2022-10-19T11:43:27.590Z,24.93
2022-10-19T11:48:59.979Z,26.63
2022-10-19T11:54:22.222Z,25.57
2022-10-19T12:00:04.003Z,27.72
2022-10-19T12:05:35.926Z,27.94
2022-10-19T12:11:03.540Z,26.70
2022-10-19T12:16:10.057Z,26.98
2022-10-19T12:21:46.341Z,26.49
2022-10-19T12:26:52.458Z,24.77
2022-10-19T12:32:00.045Z,23.60
2022-10-19T12:37:10.337Z,23.31
2022-10-19T12:42:28.515Z,24.18
2022-10-19T12:47:33.220Z,24.32
2022-10-19T12:52:40.403Z,24.21
2022-10-19T12:57:49.873Z,23.43
2022-10-19T13:03:25.061Z,24.89
2022-10-19T13:08:41.743Z,24.65
2022-10-19T13:13:57.734Z,25.58
2022-10-19T13:19:24.646Z,23.74
2022-10-19T13:24:28.730Z,25.21
2022-10-19T13:29:40.856Z,24.22
2022-10-19T13:34:44.855Z,23.43
2022-10-19T13:39:49.632Z,24.64
2022-10-19T13:44:54.040Z,25.17
2022-10-19T13:50:15.841Z,26.46
2022-10-19T13:55:22.381Z,25.55
2022-10-19T14:00:30.801Z,25.49
2022-10-19T14:06:13.058Z,26.01
2022-10-19T14:11:23.494Z,25.61
2022-10-19T14:16:27.532Z,23.78
2022-10-19T14:21:34.292Z,24.62
2022-10-19T14:26:38.369Z,25.82
2022-10-19T14:31:43.058Z,25.83
2022-10-19T14:36:49.606Z,25.86
2022-10-19T14:41:56.643Z,24.99
2022-10-19T14:47:02.313Z,24.83
2022-10-19T14:52:06.350Z,25.81
2022-10-19T14:57:25.325Z,24.28
2022-10-19T15:02:32.142Z,23.83
2022-10-19T15:07:42.745Z,23.41
2022-10-19T15:12:46.156Z,23.70
2022-10-19T15:17:57.303Z,24.01
2022-10-19T15:23:02.152Z,23.90
2022-10-19T15:28:38.987Z,23.47
2022-10-19T15:34:00.215Z,22.82
2022-10-19T15:39:18.578Z,21.74
2022-10-19T15:44:34.446Z,20.60
2022-10-19T15:49:43.491Z,19.90
2022-10-19T15:54:52.056Z,19.23
2022-10-19T15:59:57.169Z,18.60
2022-10-19T16:05:00.216Z,18.16
2022-10-19T16:10:03.998Z,17.76
2022-10-19T16:15:07.839Z,17.22
2022-10-19T16:20:17.612Z,16.80
2022-10-19T16:25:21.237Z,16.52
2022-10-19T16:30:25.268Z,16.25
2022-10-19T16:35:28.866Z,15.98
2022-10-19T16:40:32.907Z,15.71
2022-10-19T16:45:36.266Z,15.49
2022-10-19T16:50:39.998Z,15.33
2022-10-19T16:55:43.685Z,15.14
2022-10-19T17:00:46.948Z,15.00
2022-10-19T17:05:50.341Z,14.91
2022-10-19T17:10:53.278Z,14.71
2022-10-19T17:15:56.701Z,14.58
2022-10-19T17:21:05.273Z,14.39
2022-10-19T17:26:09.207Z,14.15
2022-10-19T17:31:14.406Z,13.99
2022-10-19T17:36:23.092Z,14.00
2022-10-19T17:41:27.424Z,14.09
2022-10-19T17:46:34.240Z,14.18
2022-10-19T17:51:38.410Z,14.07
2022-10-19T17:56:42.004Z,14.01
2022-10-19T18:01:45.216Z,13.82
2022-10-19T18:06:48.441Z,13.74
2022-10-19T18:11:51.475Z,13.90
2022-10-19T18:16:55.521Z,13.59
2022-10-19T18:21:58.836Z,13.33
2022-10-19T18:27:02.597Z,13.36
2022-10-19T18:37:14.611Z,13.29
2022-10-19T18:42:18.273Z,13.42
2022-10-19T18:47:21.785Z,13.47
2022-10-19T18:52:24.767Z,13.42
2022-10-19T18:57:31.640Z,13.39
2022-10-19T19:02:46.297Z,13.56
2022-10-19T19:07:51.296Z,13.39
2022-10-19T19:12:54.499Z,13.26
2022-10-19T19:17:58.049Z,13.18
2022-10-19T19:23:01.713Z,13.23
2022-10-19T19:28:05.821Z,13.32
2022-10-19T19:33:09.910Z,13.15
2022-10-19T19:38:15.350Z,12.67
2022-10-19T19:43:20.550Z,12.43
2022-10-19T19:48:24.377Z,12.49
2022-10-19T19:53:28.190Z,12.53
2022-10-19T19:58:31.233Z,12.68
2022-10-19T20:03:34.653Z,12.42
2022-10-19T20:08:39.645Z,12.41
2022-10-19T20:13:46.058Z,12.32
2022-10-19T20:18:52.984Z,12.16
2022-10-19T20:23:57.261Z,11.83
2022-10-19T20:29:03.048Z,11.52
2022-10-19T20:34:12.609Z,11.35
2022-10-19T20:39:16.305Z,11.22
2022-10-19T20:44:20.041Z,11.03
2022-10-19T20:49:23.843Z,10.96
2022-10-19T20:54:27.837Z,10.86
2022-10-19T20:59:33.280Z,10.75
2022-10-19T21:04:37.436Z,10.77
2022-10-19T21:09:40.689Z,10.76
2022-10-19T21:14:44.545Z,10.78
2022-10-19T21:19:48.122Z,10.67
2022-10-19T21:24:51.248Z,10.61
2022-10-19T21:29:55.102Z,10.48
2022-10-19T21:34:58.659Z,10.40
2022-10-19T21:40:02.311Z,10.40
2022-10-19T21:45:25.720Z,10.39
2022-10-19T21:50:28.981Z,10.38
2022-10-19T21:55:36.998Z,10.27
2022-10-19T22:00:40.242Z,10.21
2022-10-19T22:05:52.031Z,10.09
2022-10-19T22:10:55.104Z,9.98
2022-10-19T22:16:04.045Z,9.88
2022-10-19T22:21:14.095Z,9.84
2022-10-19T22:26:19.948Z,9.70
2022-10-19T22:31:24.554Z,9.63
2022-10-19T22:36:27.619Z,9.58
2022-10-19T22:42:26.773Z,9.65
2022-10-19T22:48:46.665Z,9.52
2022-10-19T22:54:08.563Z,9.48
2022-10-19T22:59:12.246Z,9.39
2022-10-19T23:04:15.210Z,9.52
2022-10-19T23:09:18.114Z,9.55
2022-10-19T23:14:21.506Z,9.56
2022-10-19T23:19:24.486Z,9.52
2022-10-19T23:24:28.434Z,9.53
2022-10-19T23:29:31.503Z,9.46
2022-10-19T23:39:43.117Z,9.44
2022-10-19T23:44:46.689Z,9.40
2022-10-19T23:49:49.935Z,9.33
2022-10-19T23:54:53.890Z,9.31
2022-10-19T23:59:56.874Z,9.24
